createdAt,value
2024-04-18T00:00:53.714Z,0.64
2024-04-18T00:01:53.611Z,0.65
2024-04-18T00:02:53.621Z,0.47
2024-04-18T00:03:53.795Z,0.53
2024-04-18T00:04:53.779Z,0.66
2024-04-18T00:05:53.731Z,0.60
2024-04-18T00:06:53.768Z,0.40
2024-04-18T00:07:53.742Z,0.74
2024-04-18T00:08:53.763Z,0.58
2024-04-18T00:09:53.766Z,0.51
2024-04-18T00:10:53.883Z,0.50
2024-04-18T00:11:53.898Z,0.72
2024-04-18T00:12:53.933Z,0.48
2024-04-18T00:13:54.018Z,0.59
2024-04-18T00:14:54.069Z,0.62
2024-04-18T00:15:54.204Z,0.38
2024-04-18T00:16:54.225Z,0.30
2024-04-18T00:17:54.715Z,0.45
2024-04-18T00:18:54.389Z,0.41
2024-04-18T00:19:54.437Z,0.43
2024-04-18T00:20:54.503Z,0.74
2024-04-18T00:21:54.563Z,0.38
2024-04-18T00:22:54.640Z,0.97
2024-04-18T00:23:54.689Z,0.43
2024-04-18T00:24:54.737Z,0.50
2024-04-18T00:25:54.803Z,0.43
2024-04-18T00:26:54.865Z,0.51
2024-04-18T00:27:54.924Z,0.53
2024-04-18T00:28:54.970Z,0.56
2024-04-18T00:29:55.028Z,0.55
2024-04-18T00:30:55.115Z,0.39
2024-04-18T00:31:55.272Z,0.58
2024-04-18T00:32:55.241Z,0.52
2024-04-18T00:33:55.310Z,0.72
2024-04-18T00:34:55.300Z,0.66
2024-04-18T00:35:55.389Z,0.59
2024-04-18T00:36:55.414Z,0.42
2024-04-18T00:37:55.497Z,0.92
2024-04-18T00:38:55.586Z,0.44
2024-04-18T00:39:55.671Z,0.45
2024-04-18T00:40:55.625Z,0.45
2024-04-18T00:41:55.722Z,0.71
2024-04-18T00:42:55.729Z,0.51
2024-04-18T00:43:55.840Z,0.49
2024-04-18T00:44:55.846Z,0.43
2024-04-18T00:45:55.928Z,0.39
2024-04-18T00:46:55.954Z,0.61
2024-04-18T00:47:55.996Z,0.56
2024-04-18T00:48:56.121Z,0.78
2024-04-18T00:49:56.082Z,0.55
2024-04-18T00:50:56.132Z,0.37
2024-04-18T00:51:56.204Z,0.53
2024-04-18T00:52:56.242Z,0.27
2024-04-18T00:53:56.324Z,0.48
2024-04-18T00:54:56.316Z,0.47
2024-04-18T00:55:56.371Z,0.53
2024-04-18T00:56:56.434Z,0.53
2024-04-18T00:57:56.446Z,0.55
2024-04-18T00:58:56.453Z,0.33
2024-04-18T00:59:56.494Z,0.46
2024-04-18T01:00:56.621Z,0.44
2024-04-18T01:01:56.579Z,0.50
2024-04-18T01:02:56.620Z,0.70
2024-04-18T01:03:56.911Z,0.68
2024-04-18T01:04:56.703Z,0.41
2024-04-18T01:05:56.700Z,0.77
2024-04-18T01:06:56.754Z,0.50
2024-04-18T01:07:56.960Z,0.42
2024-04-18T01:08:56.837Z,0.45
2024-04-18T01:09:56.872Z,0.73
2024-04-18T01:10:56.935Z,0.55
2024-04-18T01:11:56.957Z,0.54
2024-04-18T01:12:56.972Z,0.53
2024-04-18T01:13:57.005Z,0.63
2024-04-18T01:14:57.139Z,0.52
2024-04-18T01:15:57.094Z,0.52
2024-04-18T01:16:57.118Z,0.52
2024-04-18T01:17:57.263Z,0.54
2024-04-18T01:18:57.241Z,0.44
2024-04-18T01:19:57.221Z,0.39
2024-04-18T01:20:57.246Z,0.35
2024-04-18T01:21:59.502Z,0.42
2024-04-18T01:22:57.287Z,0.46
2024-04-18T01:23:57.285Z,0.36
2024-04-18T01:24:57.339Z,0.58
2024-04-18T01:25:57.275Z,1.17
2024-04-18T01:26:57.283Z,0.46
2024-04-18T01:27:57.277Z,0.52
2024-04-18T01:28:57.282Z,0.43
2024-04-18T01:29:57.294Z,0.36
2024-04-18T01:31:04.948Z,0.70
2024-04-18T01:32:04.933Z,0.43
2024-04-18T01:33:05.016Z,0.47
2024-04-18T01:34:04.976Z,0.25
2024-04-18T01:35:04.910Z,0.45
2024-04-18T01:36:04.917Z,0.52
2024-04-18T01:37:04.923Z,0.51
2024-04-18T01:38:04.923Z,0.35
2024-04-18T01:39:04.930Z,0.48
2024-04-18T01:40:04.935Z,0.50
2024-04-18T01:41:04.943Z,0.49
2024-04-18T01:42:04.932Z,0.40
2024-04-18T01:43:04.937Z,0.68
2024-04-18T01:44:04.930Z,0.33
2024-04-18T01:45:04.947Z,0.40
2024-04-18T01:46:04.948Z,0.46
2024-04-18T01:47:04.940Z,0.47
2024-04-18T01:48:05.090Z,0.26
2024-04-18T01:49:04.964Z,0.39
2024-04-18T01:50:04.968Z,0.47
2024-04-18T01:51:04.967Z,0.60
2024-04-18T01:52:04.967Z,0.64
2024-04-18T01:53:05.040Z,0.30
2024-04-18T01:54:04.950Z,0.41
2024-04-18T01:55:04.971Z,0.42
2024-04-18T01:56:04.967Z,0.41
2024-04-18T01:57:04.964Z,0.48
2024-04-18T01:58:04.956Z,0.56
2024-04-18T01:59:04.961Z,0.46
2024-04-18T02:00:04.958Z,0.15
2024-04-18T02:01:05.067Z,0.70
2024-04-18T02:02:04.957Z,0.56
2024-04-18T02:03:04.986Z,0.39
2024-04-18T02:04:05.115Z,0.48
2024-04-18T02:05:05.048Z,0.36
2024-04-18T02:06:05.011Z,0.56
2024-04-18T02:07:05.022Z,0.60
2024-04-18T02:08:05.072Z,0.46
2024-04-18T02:09:05.113Z,0.41
2024-04-18T02:10:05.168Z,0.34
2024-04-18T02:11:05.279Z,0.26
2024-04-18T02:12:05.153Z,0.38
2024-04-18T02:13:05.232Z,0.29
2024-04-18T02:14:05.213Z,0.41
2024-04-18T02:15:05.220Z,0.34
2024-04-18T02:16:05.291Z,0.41
2024-04-18T02:17:05.272Z,0.27
2024-04-18T02:18:05.307Z,0.57
2024-04-18T02:19:05.329Z,0.40
2024-04-18T02:20:05.309Z,0.36
2024-04-18T02:21:05.380Z,0.23
2024-04-18T02:22:05.409Z,0.42
2024-04-18T02:23:05.436Z,0.47
2024-04-18T02:24:05.460Z,0.27
2024-04-18T02:25:05.469Z,0.43
2024-04-18T02:26:05.500Z,0.30
2024-04-18T02:27:05.519Z,0.27
2024-04-18T02:28:05.531Z,0.53
2024-04-18T02:29:05.556Z,0.35
2024-04-18T02:30:05.564Z,0.32
2024-04-18T02:31:05.614Z,0.49
2024-04-18T02:32:05.623Z,0.41
2024-04-18T02:33:05.642Z,0.51
2024-04-18T02:34:05.654Z,0.45
2024-04-18T02:35:05.657Z,0.51
2024-04-18T02:36:05.659Z,0.71
2024-04-18T02:37:05.672Z,0.45
2024-04-18T02:38:05.679Z,0.55
2024-04-18T02:39:05.684Z,0.37
2024-04-18T02:40:05.703Z,0.35
2024-04-18T02:41:05.734Z,0.37
2024-04-18T02:42:05.737Z,0.40
2024-04-18T02:43:05.739Z,0.37
2024-04-18T02:44:05.761Z,0.33
2024-04-18T02:45:05.760Z,0.39
2024-04-18T02:46:05.775Z,0.62
2024-04-18T02:47:05.785Z,0.37
2024-04-18T02:48:05.822Z,0.43
2024-04-18T02:49:05.868Z,0.57
2024-04-18T02:50:05.824Z,0.62
2024-04-18T02:51:05.833Z,0.32
2024-04-18T02:52:05.843Z,0.46
2024-04-18T02:53:05.879Z,0.31
2024-04-18T02:54:05.888Z,0.42
2024-04-18T02:55:05.907Z,0.44
2024-04-18T02:56:05.902Z,0.37
2024-04-18T02:57:05.905Z,0.44
2024-04-18T02:58:07.735Z,0.75
2024-04-18T02:59:05.949Z,0.37
2024-04-18T03:00:05.944Z,0.43
2024-04-18T03:01:06.061Z,0.48
2024-04-18T03:02:05.936Z,0.33
2024-04-18T03:03:05.989Z,0.27
2024-04-18T03:04:06.022Z,0.42
2024-04-18T03:05:05.935Z,0.51
2024-04-18T03:06:05.975Z,0.34
2024-04-18T03:07:05.941Z,0.33
2024-04-18T03:08:05.954Z,0.51
2024-04-18T03:09:05.965Z,0.43
2024-04-18T03:10:05.956Z,0.42
2024-04-18T03:11:06.014Z,0.19
2024-04-18T03:12:05.949Z,0.32
2024-04-18T03:13:05.956Z,0.38
2024-04-18T03:14:05.956Z,0.34
2024-04-18T03:15:05.954Z,0.31
2024-04-18T03:16:06.005Z,0.30
2024-04-18T03:17:05.985Z,0.33
2024-04-18T03:18:06.069Z,0.31
2024-04-18T03:19:05.990Z,0.30
2024-04-18T03:20:05.967Z,0.44
2024-04-18T03:21:05.995Z,0.34
2024-04-18T03:22:05.943Z,0.44
2024-04-18T03:23:05.945Z,0.50
2024-04-18T03:24:05.955Z,0.50
2024-04-18T03:25:05.958Z,0.46
2024-04-18T03:26:05.953Z,0.57
2024-04-18T03:27:05.971Z,0.67
2024-04-18T03:28:05.974Z,0.30
2024-04-18T03:29:05.968Z,0.38
2024-04-18T03:30:05.961Z,0.34
2024-04-18T03:31:06.017Z,0.29
2024-04-18T03:32:06.052Z,0.50
2024-04-18T03:33:05.992Z,0.45
2024-04-18T03:34:05.972Z,0.54
2024-04-18T03:35:05.999Z,0.51
2024-04-18T03:36:05.984Z,0.53
2024-04-18T03:37:05.967Z,0.51
2024-04-18T03:38:05.990Z,0.27
2024-04-18T03:39:05.973Z,0.52
2024-04-18T03:40:05.967Z,0.44
2024-04-18T03:41:05.965Z,0.38
2024-04-18T03:42:05.978Z,0.46
2024-04-18T03:43:05.977Z,0.76
2024-04-18T03:44:05.981Z,0.50
2024-04-18T03:45:05.994Z,0.31
2024-04-18T03:46:06.010Z,0.59
2024-04-18T03:47:06.021Z,0.47
2024-04-18T03:48:06.035Z,0.51
2024-04-18T03:49:06.158Z,0.66
2024-04-18T03:50:05.986Z,0.28
2024-04-18T03:51:05.994Z,0.30
2024-04-18T03:52:05.992Z,0.44
2024-04-18T03:53:05.987Z,0.47
2024-04-18T03:54:05.994Z,0.52
2024-04-18T03:55:06.019Z,0.58
2024-04-18T03:56:05.990Z,0.31
2024-04-18T03:57:05.992Z,0.36
2024-04-18T03:58:05.994Z,0.59
2024-04-18T03:59:05.986Z,0.44
2024-04-18T04:00:06.028Z,0.24
2024-04-18T04:01:06.109Z,0.47
2024-04-18T04:02:06.060Z,0.53
2024-04-18T04:03:06.008Z,0.38
2024-04-18T04:04:06.125Z,0.56
2024-04-18T04:05:05.982Z,0.48
2024-04-18T04:06:06.006Z,0.86
2024-04-18T04:07:05.995Z,0.54
2024-04-18T04:08:05.991Z,0.36
2024-04-18T04:09:05.999Z,0.46
2024-04-18T04:10:05.992Z,0.45
2024-04-18T04:11:06.010Z,0.48
2024-04-18T04:12:05.993Z,0.50
2024-04-18T04:13:06.001Z,0.55
2024-04-18T04:14:06.009Z,0.44
2024-04-18T04:15:05.985Z,0.54
2024-04-18T04:16:06.024Z,0.37
2024-04-18T04:17:13.383Z,0.36
2024-04-18T04:18:06.080Z,0.39
2024-04-18T04:19:06.079Z,0.33
2024-04-18T04:20:05.983Z,0.41
2024-04-18T04:21:05.992Z,0.43
2024-04-18T04:22:05.985Z,0.39
2024-04-18T04:23:06.001Z,0.37
2024-04-18T04:24:06.003Z,0.33
2024-04-18T04:25:06.009Z,0.58
2024-04-18T04:26:06.023Z,0.34
2024-04-18T04:27:05.982Z,0.45
2024-04-18T04:28:06.001Z,0.56
2024-04-18T04:29:06.001Z,0.41
2024-04-18T04:30:06.002Z,0.45
2024-04-18T04:31:08.413Z,0.39
2024-04-18T04:32:06.046Z,0.49
2024-04-18T04:33:06.053Z,0.49
2024-04-18T04:34:06.059Z,0.45
2024-04-18T04:35:06.773Z,0.38
2024-04-18T04:36:06.057Z,0.70
2024-04-18T04:37:06.053Z,0.68
2024-04-18T04:38:06.077Z,0.50
2024-04-18T04:39:06.082Z,0.42
2024-04-18T04:40:06.107Z,0.30
2024-04-18T04:41:06.118Z,0.33
2024-04-18T04:42:06.153Z,0.56
2024-04-18T04:43:06.195Z,0.44
2024-04-18T04:44:06.231Z,0.30
2024-04-18T04:45:06.210Z,0.56
2024-04-18T04:46:06.262Z,0.45
2024-04-18T04:47:06.256Z,0.70
2024-04-18T04:48:06.407Z,0.28
2024-04-18T04:49:06.332Z,0.45
2024-04-18T04:50:06.307Z,0.43
2024-04-18T04:51:16.362Z,0.43
2024-04-18T04:52:06.316Z,0.72
2024-04-18T04:53:06.327Z,0.41
2024-04-18T04:54:06.306Z,0.43
2024-04-18T04:55:06.321Z,0.56
2024-04-18T04:56:06.326Z,0.54
2024-04-18T04:57:06.314Z,0.29
2024-04-18T04:58:06.320Z,0.50
2024-04-18T04:59:06.319Z,0.67
2024-04-18T05:00:06.328Z,0.33
2024-04-18T05:01:06.385Z,0.34
2024-04-18T05:02:06.384Z,0.38
2024-04-18T05:03:06.340Z,0.46
2024-04-18T05:04:06.441Z,0.47
2024-04-18T05:05:06.326Z,0.36
2024-04-18T05:06:06.328Z,0.49
2024-04-18T05:07:06.325Z,0.46
2024-04-18T05:08:06.329Z,0.41
2024-04-18T05:09:06.347Z,0.50
2024-04-18T05:10:06.336Z,0.55
2024-04-18T05:11:11.399Z,0.58
2024-04-18T05:12:06.343Z,0.36
2024-04-18T05:13:06.328Z,0.38
2024-04-18T05:14:06.335Z,0.38
2024-04-18T05:15:06.328Z,0.51
2024-04-18T05:16:06.392Z,0.66
2024-04-18T05:17:06.341Z,0.42
2024-04-18T05:18:06.414Z,0.64
2024-04-18T05:19:06.348Z,0.41
2024-04-18T05:20:06.327Z,0.35
2024-04-18T05:21:06.332Z,0.42
2024-04-18T05:22:06.367Z,0.39
2024-04-18T05:23:06.344Z,0.47
2024-04-18T05:24:06.327Z,0.46
2024-04-18T05:25:06.329Z,0.42
2024-04-18T05:26:06.334Z,0.27
2024-04-18T05:27:06.340Z,0.54
2024-04-18T05:28:06.344Z,0.35
2024-04-18T05:29:06.333Z,0.51
2024-04-18T05:30:06.329Z,0.60
2024-04-18T05:31:06.604Z,0.43
2024-04-18T05:32:06.387Z,0.52
2024-04-18T05:33:06.382Z,0.58
2024-04-18T05:34:06.407Z,0.56
2024-04-18T05:35:06.387Z,0.50
2024-04-18T05:36:06.411Z,0.56
2024-04-18T05:37:06.896Z,0.31
2024-04-18T05:38:06.443Z,0.41
2024-04-18T05:39:06.428Z,0.48
2024-04-18T05:40:06.557Z,0.42
2024-04-18T05:41:06.475Z,0.59
2024-04-18T05:42:06.485Z,0.40
2024-04-18T05:43:06.483Z,0.54
2024-04-18T05:44:06.517Z,0.89
2024-04-18T05:45:06.529Z,0.49
2024-04-18T05:46:06.534Z,0.54
2024-04-18T05:47:06.591Z,0.49
2024-04-18T05:48:06.645Z,0.44
2024-04-18T05:49:06.548Z,0.67
2024-04-18T05:50:06.572Z,0.60
2024-04-18T05:51:06.559Z,0.52
2024-04-18T05:52:06.644Z,0.28
2024-04-18T05:53:06.589Z,0.37
2024-04-18T05:54:06.604Z,0.59
2024-04-18T05:55:06.612Z,0.42
2024-04-18T05:56:06.611Z,0.46
2024-04-18T05:57:06.615Z,0.62
2024-04-18T05:58:06.633Z,0.66
2024-04-18T05:59:06.663Z,0.60
2024-04-18T06:00:06.670Z,0.50
2024-04-18T06:01:06.862Z,0.38
2024-04-18T06:02:08.099Z,0.41
2024-04-18T06:03:06.788Z,0.53
2024-04-18T06:04:14.373Z,0.75
2024-04-18T06:05:14.313Z,0.70
2024-04-18T06:06:14.343Z,0.43
2024-04-18T06:07:14.310Z,0.58
2024-04-18T06:08:14.324Z,1.71
2024-04-18T06:09:14.333Z,1.10
2024-04-18T06:10:14.340Z,1.16
2024-04-18T06:11:14.356Z,0.94
2024-04-18T06:12:14.320Z,0.86
2024-04-18T06:13:14.324Z,0.81
2024-04-18T06:14:14.332Z,0.98
2024-04-18T06:15:14.333Z,3.46
2024-04-18T06:16:14.368Z,1.14
2024-04-18T06:17:14.321Z,0.69
2024-04-18T06:18:14.326Z,0.51
2024-04-18T06:19:14.347Z,0.43
2024-04-18T06:20:14.332Z,0.54
2024-04-18T06:21:14.343Z,0.65
2024-04-18T06:22:14.372Z,0.72
2024-04-18T06:23:14.351Z,0.58
2024-04-18T06:24:14.398Z,0.82
2024-04-18T06:25:14.473Z,0.96
2024-04-18T06:26:14.570Z,0.86
2024-04-18T06:27:14.550Z,0.86
2024-04-18T06:28:14.613Z,1.00
2024-04-18T06:29:14.728Z,1.06
2024-04-18T06:30:14.807Z,1.16
2024-04-18T06:31:14.796Z,1.12
2024-04-18T06:32:14.891Z,0.83
2024-04-18T06:33:14.997Z,1.14
2024-04-18T06:34:15.000Z,1.17
2024-04-18T06:35:15.041Z,0.98
2024-04-18T06:36:15.979Z,1.80
2024-04-18T06:37:15.168Z,1.73
2024-04-18T06:38:15.260Z,1.52
2024-04-18T06:39:15.249Z,1.51
2024-04-18T06:40:15.309Z,0.96
2024-04-18T06:41:15.335Z,0.98
2024-04-18T06:42:15.390Z,1.13
2024-04-18T06:43:15.423Z,1.09
2024-04-18T06:44:15.584Z,1.55
2024-04-18T06:45:15.537Z,1.41
2024-04-18T06:46:15.675Z,1.39
2024-04-18T06:47:15.687Z,1.24
2024-04-18T06:48:15.710Z,1.47
2024-04-18T06:49:15.709Z,1.50
2024-04-18T06:50:15.693Z,1.84
2024-04-18T06:51:15.737Z,1.58
2024-04-18T06:52:15.774Z,2.28
2024-04-18T06:53:15.844Z,1.81
2024-04-18T06:54:15.892Z,2.49
2024-04-18T06:55:15.930Z,2.79
2024-04-18T06:56:16.438Z,2.94
2024-04-18T06:57:15.977Z,2.54
2024-04-18T06:58:16.012Z,3.58
2024-04-18T06:59:16.064Z,3.42
2024-04-18T07:00:16.102Z,2.78
2024-04-18T07:01:16.238Z,3.06
2024-04-18T07:02:16.261Z,2.99
2024-04-18T07:03:16.307Z,3.34
2024-04-18T07:04:16.381Z,2.82
2024-04-18T07:05:16.366Z,2.98
2024-04-18T07:06:16.399Z,3.03
2024-04-18T07:07:16.392Z,2.82
2024-04-18T07:08:16.433Z,2.68
2024-04-18T07:09:16.436Z,3.15
2024-04-18T07:10:16.476Z,2.78
2024-04-18T07:11:16.514Z,2.89
2024-04-18T07:12:16.520Z,2.72
2024-04-18T07:13:16.560Z,3.10
2024-04-18T07:14:16.586Z,2.95
2024-04-18T07:15:16.608Z,2.80
2024-04-18T07:16:16.664Z,2.71
2024-04-18T07:17:16.708Z,2.63
2024-04-18T07:18:16.790Z,2.63
2024-04-18T07:19:16.768Z,2.99
2024-04-18T07:20:16.745Z,2.52
2024-04-18T07:21:16.748Z,2.73
2024-04-18T07:22:16.787Z,3.07
2024-04-18T07:23:16.804Z,2.88
2024-04-18T07:24:16.840Z,2.42
2024-04-18T07:25:16.846Z,2.64
2024-04-18T07:26:16.884Z,2.41
2024-04-18T07:27:16.918Z,2.71
2024-04-18T07:28:16.924Z,2.72
2024-04-18T07:29:16.931Z,2.43
2024-04-18T07:30:17.131Z,1.99
2024-04-18T07:31:17.022Z,2.20
2024-04-18T07:32:17.096Z,2.32
2024-04-18T07:33:17.147Z,2.50
2024-04-18T07:34:17.202Z,2.35
2024-04-18T07:35:17.141Z,2.67
2024-04-18T07:36:17.200Z,2.53
2024-04-18T07:37:17.191Z,2.30
2024-04-18T07:38:17.253Z,2.27
2024-04-18T07:39:17.296Z,4.85
2024-04-18T07:40:17.313Z,2.17
2024-04-18T07:41:20.958Z,2.29
2024-04-18T07:42:17.336Z,3.38
2024-04-18T07:43:17.353Z,2.12
2024-04-18T07:44:20.023Z,2.34
2024-04-18T07:45:17.355Z,2.85
2024-04-18T07:46:20.940Z,2.14
2024-04-18T07:47:17.363Z,2.26
2024-04-18T07:48:17.492Z,2.08
2024-04-18T07:49:17.585Z,2.24
2024-04-18T07:50:17.342Z,1.96
2024-04-18T07:51:21.058Z,2.24
2024-04-18T07:52:17.888Z,1.91
2024-04-18T07:53:17.358Z,2.09
2024-04-18T07:54:17.368Z,2.15
2024-04-18T07:55:17.373Z,2.41
2024-04-18T07:56:21.392Z,1.71
2024-04-18T07:57:17.675Z,1.91
2024-04-18T07:58:17.749Z,1.83
2024-04-18T07:59:18.163Z,2.00
2024-04-18T08:00:18.178Z,2.10
2024-04-18T08:01:18.535Z,2.21
2024-04-18T08:02:19.271Z,1.85
2024-04-18T08:03:18.988Z,1.65
2024-04-18T08:04:34.986Z,1.84
2024-04-18T08:05:20.767Z,1.96
2024-04-18T08:06:20.785Z,2.05
2024-04-18T08:07:20.692Z,2.08
2024-04-18T08:08:19.662Z,2.13
2024-04-18T08:09:19.766Z,1.99
2024-04-18T08:10:20.378Z,2.02
2024-04-18T08:11:52.434Z,2.04
2024-04-18T08:12:26.646Z,1.94
2024-04-18T08:13:22.198Z,2.79
2024-04-18T08:14:22.400Z,2.05
2024-04-18T08:15:23.684Z,2.07
2024-04-18T08:16:19.327Z,2.24
2024-04-18T08:17:17.555Z,2.79
2024-04-18T08:18:17.443Z,2.28
2024-04-18T08:19:17.410Z,2.46
2024-04-18T08:20:17.445Z,2.31
2024-04-18T08:21:17.462Z,1.89
2024-04-18T08:22:17.453Z,2.15
2024-04-18T08:23:19.836Z,2.30
2024-04-18T08:24:17.634Z,2.46
2024-04-18T08:25:17.575Z,1.97
2024-04-18T08:26:17.670Z,2.28
2024-04-18T08:27:17.684Z,2.73
2024-04-18T08:28:17.700Z,2.19
2024-04-18T08:29:17.695Z,2.66
2024-04-18T08:30:17.784Z,1.96
2024-04-18T08:31:17.769Z,2.26
2024-04-18T08:32:17.822Z,2.22
2024-04-18T08:33:17.902Z,1.80
2024-04-18T08:34:18.915Z,2.15
2024-04-18T08:35:17.986Z,2.58
2024-04-18T08:36:18.024Z,2.22
2024-04-18T08:37:17.998Z,2.51
2024-04-18T08:38:18.032Z,2.18
2024-04-18T08:39:18.081Z,1.76
2024-04-18T08:40:18.126Z,1.98
2024-04-18T08:41:18.174Z,2.18
2024-04-18T08:42:18.263Z,2.74
2024-04-18T08:43:18.306Z,1.44
2024-04-18T08:44:18.336Z,2.19
2024-04-18T08:45:18.413Z,1.74
2024-04-18T08:46:18.445Z,2.25
2024-04-18T08:47:18.531Z,2.44
2024-04-18T08:48:18.686Z,2.35
2024-04-18T08:49:18.686Z,2.02
2024-04-18T08:50:18.605Z,2.15
2024-04-18T08:51:18.684Z,1.95
2024-04-18T08:52:18.714Z,2.00
2024-04-18T08:53:18.767Z,2.86
2024-04-18T08:54:18.846Z,2.04
2024-04-18T08:55:18.882Z,2.48
2024-04-18T08:56:18.893Z,2.43
2024-04-18T08:57:18.918Z,1.51
2024-04-18T08:58:18.982Z,1.74
2024-04-18T08:59:19.012Z,1.89
2024-04-18T09:00:19.062Z,1.83
2024-04-18T09:01:19.084Z,1.75
2024-04-18T09:02:19.106Z,1.75
2024-04-18T09:03:19.155Z,1.79
2024-04-18T09:04:19.213Z,1.71
2024-04-18T09:05:19.195Z,1.53
2024-04-18T09:06:19.238Z,1.66
2024-04-18T09:07:19.282Z,1.72
2024-04-18T09:08:19.313Z,1.82
2024-04-18T09:09:19.381Z,1.65
2024-04-18T09:10:19.369Z,1.52
2024-04-18T09:11:19.444Z,2.30
2024-04-18T09:12:19.458Z,1.63
2024-04-18T09:13:19.451Z,1.53
2024-04-18T09:14:19.483Z,1.00
2024-04-18T09:15:19.578Z,1.29
2024-04-18T09:16:19.540Z,1.64
2024-04-18T09:17:19.648Z,1.29
2024-04-18T09:18:19.830Z,1.53
2024-04-18T09:19:19.777Z,1.58
2024-04-18T09:20:19.670Z,1.38
2024-04-18T09:21:19.759Z,1.69
2024-04-18T09:22:19.761Z,1.44
2024-04-18T09:23:19.785Z,1.21
2024-04-18T09:24:19.835Z,1.21
2024-04-18T09:25:19.852Z,1.65
2024-04-18T09:26:19.865Z,1.37
2024-04-18T09:27:19.933Z,1.43
2024-04-18T09:28:19.921Z,2.32
2024-04-18T09:29:19.945Z,2.45
2024-04-18T09:30:19.995Z,2.07
2024-04-18T09:31:27.556Z,1.91
2024-04-18T09:32:21.002Z,1.77
2024-04-18T09:33:20.077Z,1.84
2024-04-18T09:34:20.076Z,1.88
2024-04-18T09:35:20.014Z,2.01
2024-04-18T09:36:20.022Z,2.37
2024-04-18T09:37:19.992Z,2.03
2024-04-18T09:38:19.988Z,2.88
2024-04-18T09:39:20.308Z,2.39
2024-04-18T09:40:20.007Z,2.32
2024-04-18T09:41:20.032Z,2.45
2024-04-18T09:42:20.026Z,2.29
2024-04-18T09:43:19.995Z,17.23
2024-04-18T09:44:19.999Z,2.26
2024-04-18T09:45:20.056Z,1.64
2024-04-18T09:46:20.019Z,1.90
2024-04-18T09:47:20.013Z,1.90
2024-04-18T09:48:20.109Z,1.79
2024-04-18T09:49:20.184Z,1.63
2024-04-18T09:50:20.027Z,1.72
2024-04-18T09:51:20.060Z,1.86
2024-04-18T09:52:20.038Z,1.88
2024-04-18T09:53:20.017Z,1.74
2024-04-18T09:54:20.129Z,1.51
2024-04-18T09:55:22.003Z,1.93
2024-04-18T09:56:20.006Z,1.41
2024-04-18T09:57:20.043Z,1.84
2024-04-18T09:58:20.019Z,1.71
2024-04-18T09:59:20.024Z,1.73
2024-04-18T10:00:20.049Z,1.50
2024-04-18T10:01:20.103Z,1.63
2024-04-18T10:02:20.053Z,1.42
2024-04-18T10:03:20.099Z,1.12
2024-04-18T10:04:20.078Z,1.13
2024-04-18T10:05:20.031Z,1.34
2024-04-18T10:06:20.069Z,1.18
2024-04-18T10:07:20.079Z,1.44
2024-04-18T10:08:20.032Z,1.46
2024-04-18T10:09:20.054Z,1.49
2024-04-18T10:10:20.036Z,1.34
2024-04-18T10:11:20.135Z,1.28
2024-04-18T10:12:20.049Z,1.10
2024-04-18T10:13:21.310Z,1.57
2024-04-18T10:14:20.030Z,1.91
2024-04-18T10:15:20.175Z,1.33
2024-04-18T10:16:20.166Z,1.73
2024-04-18T10:17:20.192Z,1.20
2024-04-18T10:18:20.351Z,1.31
2024-04-18T10:19:20.261Z,1.27
2024-04-18T10:20:20.254Z,1.99
2024-04-18T10:21:27.896Z,1.10
2024-04-18T10:22:29.536Z,1.22
2024-04-18T10:23:21.320Z,1.37
2024-04-18T10:24:20.420Z,1.12
2024-04-18T10:25:20.302Z,1.39
2024-04-18T10:26:20.298Z,0.85
2024-04-18T10:27:20.366Z,1.18
2024-04-18T10:28:20.307Z,1.35
2024-04-18T10:29:20.298Z,0.99
2024-04-18T10:30:20.333Z,0.85
2024-04-18T10:31:20.320Z,1.36
2024-04-18T10:32:20.361Z,0.84
2024-04-18T10:33:20.446Z,1.28
2024-04-18T10:34:20.325Z,0.91
2024-04-18T10:35:20.317Z,0.92
2024-04-18T10:36:20.346Z,1.17
2024-04-18T10:37:27.891Z,0.70
2024-04-18T10:38:27.903Z,1.00
2024-04-18T10:39:27.908Z,1.49
2024-04-18T10:40:27.879Z,1.28
2024-04-18T10:41:27.882Z,0.93
2024-04-18T10:42:27.917Z,0.99
2024-04-18T10:43:27.894Z,0.98
2024-04-18T10:44:27.909Z,0.90
2024-04-18T10:45:27.964Z,0.82
2024-04-18T10:46:27.914Z,0.62
2024-04-18T10:47:27.949Z,1.00
2024-04-18T10:48:28.035Z,0.66
2024-04-18T10:49:28.052Z,1.07
2024-04-18T10:50:30.101Z,0.77
2024-04-18T10:51:27.978Z,0.93
2024-04-18T10:52:27.901Z,1.11
2024-04-18T10:53:27.965Z,1.14
2024-04-18T10:54:28.089Z,0.88
2024-04-18T10:55:28.140Z,0.79
2024-04-18T10:56:30.117Z,0.92
2024-04-18T10:57:28.326Z,1.00
2024-04-18T10:58:28.273Z,0.59
2024-04-18T10:59:28.352Z,0.65
2024-04-18T11:00:28.470Z,1.01
2024-04-18T11:01:28.521Z,0.77
2024-04-18T11:02:30.003Z,0.72
2024-04-18T11:03:28.734Z,0.52
2024-04-18T11:04:28.825Z,0.81
2024-04-18T11:05:28.743Z,0.81
2024-04-18T11:06:28.818Z,0.50
2024-04-18T11:07:28.866Z,1.12
2024-04-18T11:08:31.203Z,0.74
2024-04-18T11:09:28.941Z,0.68
2024-04-18T11:10:28.924Z,1.02
2024-04-18T11:11:28.938Z,0.86
2024-04-18T11:12:28.974Z,0.95
2024-04-18T11:13:28.913Z,1.10
2024-04-18T11:14:28.927Z,1.14
2024-04-18T11:15:28.993Z,1.20
2024-04-18T11:16:28.979Z,0.89
2024-04-18T11:17:28.953Z,0.89
2024-04-18T11:18:29.091Z,1.14
2024-04-18T11:19:28.977Z,1.52
2024-04-18T11:20:30.701Z,1.29
2024-04-18T11:21:28.973Z,1.37
2024-04-18T11:22:28.929Z,1.53
2024-04-18T11:23:35.865Z,1.26
2024-04-18T11:24:30.139Z,1.11
2024-04-18T11:25:29.032Z,1.60
2024-04-18T11:26:30.343Z,1.52
2024-04-18T11:27:29.031Z,1.69
2024-04-18T11:28:29.003Z,1.67
2024-04-18T11:29:29.369Z,1.41
2024-04-18T11:30:29.083Z,1.36
2024-04-18T11:31:29.197Z,2.09
2024-04-18T11:32:30.754Z,1.61
2024-04-18T11:33:29.085Z,2.07
2024-04-18T11:34:29.012Z,1.27
2024-04-18T11:35:29.051Z,2.13
2024-04-18T11:36:29.072Z,1.00
2024-04-18T11:37:29.019Z,1.19
2024-04-18T11:38:30.430Z,1.03
2024-04-18T11:39:29.102Z,0.99
2024-04-18T11:40:29.016Z,0.99
2024-04-18T11:41:29.021Z,0.98
2024-04-18T11:42:29.052Z,0.90
2024-04-18T11:43:29.024Z,0.74
2024-04-18T11:44:30.483Z,1.10
2024-04-18T11:45:29.087Z,0.59
2024-04-18T11:46:29.028Z,1.05
2024-04-18T11:47:29.121Z,1.17
2024-04-18T11:48:29.208Z,1.30
2024-04-18T11:49:29.210Z,1.17
2024-04-18T11:50:29.078Z,1.24
2024-04-18T11:51:29.066Z,1.34
2024-04-18T11:52:29.066Z,1.51
2024-04-18T11:53:29.097Z,1.38
2024-04-18T11:54:29.117Z,1.35
2024-04-18T11:55:29.056Z,1.47
2024-04-18T11:56:29.074Z,1.44
2024-04-18T11:57:29.097Z,1.25
2024-04-18T11:58:29.077Z,1.45
2024-04-18T11:59:29.062Z,1.11
2024-04-18T12:00:29.120Z,1.11
2024-04-18T12:01:29.079Z,1.05
2024-04-18T12:02:29.078Z,1.20
2024-04-18T12:03:29.128Z,1.25
2024-04-18T12:04:29.158Z,2.06
2024-04-18T12:05:29.070Z,1.05
2024-04-18T12:06:29.122Z,1.09
2024-04-18T12:07:29.065Z,1.25
2024-04-18T12:08:29.095Z,1.12
2024-04-18T12:09:29.166Z,1.41
2024-04-18T12:10:29.183Z,1.45
2024-04-18T12:11:29.246Z,1.32
2024-04-18T12:12:29.275Z,1.42
2024-04-18T12:13:29.373Z,1.77
2024-04-18T12:14:29.323Z,1.70
2024-04-18T12:15:29.416Z,1.44
2024-04-18T12:16:29.483Z,1.52
2024-04-18T12:17:29.526Z,1.69
2024-04-18T12:18:29.467Z,1.62
2024-04-18T12:19:29.444Z,1.95
2024-04-18T12:20:29.507Z,1.92
2024-04-18T12:21:29.545Z,1.45
2024-04-18T12:22:29.553Z,2.16
2024-04-18T12:23:29.575Z,1.39
2024-04-18T12:24:29.714Z,0.94
2024-04-18T12:25:29.659Z,1.21
2024-04-18T12:26:29.684Z,1.24
2024-04-18T12:27:29.746Z,1.20
2024-04-18T12:28:29.744Z,1.61
2024-04-18T12:29:29.779Z,1.44
2024-04-18T12:30:30.476Z,1.82
2024-04-18T12:31:29.852Z,1.48
2024-04-18T12:32:29.945Z,1.49
2024-04-18T12:33:29.984Z,1.29
2024-04-18T12:34:29.975Z,1.70
2024-04-18T12:35:29.983Z,1.29
2024-04-18T12:36:30.169Z,1.20
2024-04-18T12:37:30.069Z,1.10
2024-04-18T12:38:30.101Z,1.24
2024-04-18T12:39:30.145Z,1.19
2024-04-18T12:40:30.150Z,1.57
2024-04-18T12:41:30.193Z,1.41
2024-04-18T12:42:30.274Z,1.33
2024-04-18T12:43:30.258Z,1.50
2024-04-18T12:44:31.842Z,1.32
2024-04-18T12:45:30.328Z,1.01
2024-04-18T12:46:30.549Z,1.25
2024-04-18T12:47:30.459Z,1.10
2024-04-18T12:48:30.484Z,1.77
2024-04-18T12:49:30.529Z,1.17
2024-04-18T12:50:30.520Z,1.61
2024-04-18T12:51:30.634Z,1.58
2024-04-18T12:52:30.644Z,1.29
2024-04-18T12:53:30.682Z,1.36
2024-04-18T12:54:30.789Z,1.30
2024-04-18T12:55:30.887Z,1.33
2024-04-18T12:56:30.876Z,1.36
2024-04-18T12:57:30.953Z,1.84
2024-04-18T12:58:30.987Z,1.80
2024-04-18T12:59:31.082Z,1.75
2024-04-18T13:00:31.340Z,1.50
2024-04-18T13:01:31.248Z,2.11
2024-04-18T13:02:31.293Z,2.83
2024-04-18T13:03:31.409Z,2.95
2024-04-18T13:04:31.461Z,2.48
2024-04-18T13:05:31.412Z,2.97
2024-04-18T13:06:31.479Z,2.81
2024-04-18T13:07:31.438Z,3.28
2024-04-18T13:08:31.465Z,2.12
2024-04-18T13:09:31.688Z,2.42
2024-04-18T13:10:31.548Z,3.17
2024-04-18T13:11:31.590Z,2.38
2024-04-18T13:12:31.622Z,2.36
2024-04-18T13:13:31.644Z,2.32
2024-04-18T13:14:31.676Z,2.00
2024-04-18T13:15:31.691Z,1.94
2024-04-18T13:16:31.741Z,1.86
2024-04-18T13:17:31.767Z,1.83
2024-04-18T13:18:31.737Z,1.54
2024-04-18T13:19:31.736Z,1.65